Ne plus se rappeler de moi
Bonjour et Bienvenue
Pas de session ouverte
Jeudi 17/04/2014
d:\inetpub\wwwroot\acrroussillon\reservation\ACR\IMAGES\IMG1.JPGd:\inetpub\wwwroot\acrroussillon\reservation\ACR\IMAGES\IMG2.JPGd:\inetpub\wwwroot\acrroussillon\reservation\ACR/IMAGES/IMG3.jpg
00:00:00
Horaires du 17/04/2014 (Données à titre indicatif seulement).
Lever du soleil : 07h04 - Coucher du soleil : 20h32 (Heure Locale)
Jour aéronautique : 06h34 - Nuit aéronautique : 21h02 (Heure Locale)
Planning des réservations des aéronefs
Planning des réservations des aéronefs
2014/04/17 21:30
LFMP 172130Z AUTO 31012KT 9999 NSC 20/06 Q1015
Planning des réservations des aéronefs
2014/04/17 18:23
TAF LFMP 171700Z 1718/1818 14005KT 9999 NSC
BECMG 1718/1720 30015G28KT
Informations sur les aéronefs
Informations sur les aéronefs
Modifications des Types de vols
ATTENTION PLUS DE PAIEMENT EN LIGNE DEPUIS LA MAISON
AEROCLUB DU ROUSSILLON. AVENUE MAURICE BELLONTE. 66000 PERPIGNAN. Tel : 04.68.73.48.18 Fax : 09.55.16.18.97 Courriel : aeroclub-roussillon@hotmail.fr
 METAR / TAF
LIENS UTILES
envoyer un e-mail
d:\inetpub\wwwroot\acrroussillon\reservation\ACR/IMAGES/Logo.jpg
Identifiez vous pour interaction
d:\inetpub\wwwroot\acrroussillon\reservation\ACR/IMAGES/Logo.jpg
Aéro-Club du Roussillon